createdAt,value
2018-11-03T00:00:40.912Z,17.55
2018-11-03T00:01:50.501Z,17.5
2018-11-03T00:03:00.376Z,17.46
2018-11-03T00:04:10.506Z,17.43
2018-11-03T00:05:20.364Z,17.47
2018-11-03T00:06:30.225Z,17.39
2018-11-03T00:07:40.096Z,17.32
2018-11-03T00:08:49.952Z,17.28
2018-11-03T00:10:00.094Z,17.22
2018-11-03T00:11:09.662Z,17.36
2018-11-03T00:12:19.855Z,17.21
2018-11-03T00:13:29.974Z,17.22
2018-11-03T00:14:40.106Z,17.12
2018-11-03T00:15:49.941Z,17.17
2018-11-03T00:16:59.509Z,17.12
2018-11-03T00:18:09.090Z,17.13
2018-11-03T00:19:18.942Z,17.1
2018-11-03T00:20:31.317Z,17.06
2018-11-03T00:21:42.071Z,17.02
2018-11-03T00:22:52.458Z,17.03
2018-11-03T00:24:01.489Z,16.99
2018-11-03T00:25:11.628Z,16.91
2018-11-03T00:26:21.204Z,16.9
2018-11-03T00:27:31.067Z,16.88
2018-11-03T00:28:40.915Z,16.84
2018-11-03T00:29:50.873Z,16.81
2018-11-03T00:31:00.721Z,16.82
2018-11-03T00:32:10.856Z,16.74
2018-11-03T00:33:20.429Z,16.73
2018-11-03T00:34:30.272Z,16.72
2018-11-03T00:35:40.371Z,16.66
2018-11-03T00:36:50.212Z,16.62
2018-11-03T00:37:59.526Z,16.69
2018-11-03T00:39:09.103Z,16.58
2018-11-03T00:40:18.954Z,16.69
2018-11-03T00:41:28.928Z,16.57
2018-11-03T00:42:39.110Z,16.62
2018-11-03T00:43:48.914Z,16.57
2018-11-03T00:44:59.268Z,16.54
2018-11-03T00:46:09.599Z,16.54
2018-11-03T00:47:19.987Z,16.72
2018-11-03T00:48:29.554Z,16.76
2018-11-03T00:49:39.447Z,16.67
2018-11-03T00:50:49.004Z,16.72
2018-11-03T00:51:58.838Z,16.73
2018-11-03T00:53:09.879Z,16.67
2018-11-03T00:54:19.714Z,16.72
2018-11-03T00:55:29.632Z,16.74
2018-11-03T00:56:39.763Z,16.59
2018-11-03T00:57:49.872Z,16.63
2018-11-03T00:58:59.712Z,16.63
2018-11-03T01:00:09.573Z,16.65
2018-11-03T01:01:19.392Z,16.67
2018-11-03T01:02:29.513Z,16.65
2018-11-03T01:03:39.645Z,16.66
2018-11-03T01:04:49.497Z,16.62
2018-11-03T01:05:59.344Z,16.58
2018-11-03T01:07:09.184Z,16.67
2018-11-03T01:08:19.501Z,16.59
2018-11-03T01:09:30.477Z,16.63
2018-11-03T01:10:40.822Z,16.54
2018-11-03T01:11:50.666Z,16.57
2018-11-03T01:13:02.154Z,16.57
2018-11-03T01:14:11.721Z,16.51
2018-11-03T01:15:21.310Z,16.45
2018-11-03T01:16:31.145Z,16.49
2018-11-03T01:17:40.977Z,16.45
2018-11-03T01:18:50.842Z,16.4
2018-11-03T01:20:00.949Z,16.39
2018-11-03T01:21:11.082Z,16.39
2018-11-03T01:22:21.177Z,16.42
2018-11-03T01:23:31.431Z,16.44
2018-11-03T01:24:41.852Z,16.39
2018-11-03T01:25:51.954Z,16.45
2018-11-03T01:27:01.789Z,16.49
2018-11-03T01:28:11.617Z,16.34
2018-11-03T01:29:21.735Z,16.33
2018-11-03T01:30:32.151Z,16.4
2018-11-03T01:31:42.533Z,16.36
2018-11-03T01:32:53.093Z,16.25
2018-11-03T01:34:02.943Z,16.3
2018-11-03T01:35:13.047Z,16.32
2018-11-03T01:36:22.601Z,16.34
2018-11-03T01:37:32.427Z,16.26
2018-11-03T01:38:42.259Z,16.37
2018-11-03T01:39:52.122Z,16.32
2018-11-03T01:41:01.713Z,16.33
2018-11-03T01:42:11.582Z,16.27
2018-11-03T01:43:20.880Z,16.27
2018-11-03T01:44:30.995Z,16.25
2018-11-03T01:45:40.831Z,16.25
2018-11-03T01:46:50.663Z,16.26
2018-11-03T01:48:03.176Z,16.25
2018-11-03T01:49:13.031Z,16.22
2018-11-03T01:50:22.880Z,16.27
2018-11-03T01:51:32.725Z,16.3
2018-11-03T01:52:43.105Z,16.33
2018-11-03T01:53:53.950Z,16.27
2018-11-03T01:55:04.567Z,16.3
2018-11-03T01:56:14.148Z,16.32
2018-11-03T01:57:24.243Z,16.33
2018-11-03T01:58:34.071Z,16.3
2018-11-03T01:59:43.951Z,16.34
2018-11-03T02:00:54.052Z,16.3
2018-11-03T02:02:04.241Z,16.37
2018-11-03T02:03:14.088Z,16.27
2018-11-03T02:04:24.188Z,16.27
2018-11-03T02:05:34.296Z,16.27
2018-11-03T02:06:43.869Z,16.21
2018-11-03T02:07:54.003Z,16.26
2018-11-03T02:09:04.117Z,16.22
2018-11-03T02:10:14.018Z,16.13
2018-11-03T02:11:24.102Z,16.21
2018-11-03T02:12:33.957Z,16.21
2018-11-03T02:13:43.794Z,16.25
2018-11-03T02:14:54.260Z,16.22
2018-11-03T02:16:04.709Z,16.26
2018-11-03T02:17:14.797Z,16.27
2018-11-03T02:18:24.369Z,16.21
2018-11-03T02:19:34.487Z,16.22
2018-11-03T02:20:44.599Z,16.29
2018-11-03T02:21:54.431Z,16.21
2018-11-03T02:23:04.641Z,16.32
2018-11-03T02:24:14.504Z,16.27
2018-11-03T02:25:24.061Z,16.27
2018-11-03T02:26:34.169Z,16.27
2018-11-03T02:27:44.103Z,16.33
2018-11-03T02:28:53.684Z,16.29
2018-11-03T02:30:05.244Z,16.32
2018-11-03T02:31:15.067Z,16.29
2018-11-03T02:32:24.896Z,16.27
2018-11-03T02:33:35.029Z,16.27
2018-11-03T02:34:45.128Z,16.26
2018-11-03T02:35:55.234Z,16.36
2018-11-03T02:37:05.486Z,16.34
2018-11-03T02:38:16.296Z,16.27
2018-11-03T02:39:26.675Z,16.39
2018-11-03T02:40:36.564Z,16.39
2018-11-03T02:41:46.656Z,16.34
2018-11-03T02:42:56.465Z,16.34
2018-11-03T02:44:06.549Z,16.29
2018-11-03T02:45:16.696Z,16.27
2018-11-03T02:46:26.819Z,16.3
2018-11-03T02:47:36.702Z,16.27
2018-11-03T02:48:46.801Z,16.21
2018-11-03T02:49:56.914Z,16.16
2018-11-03T02:51:07.054Z,16.17
2018-11-03T02:52:17.163Z,16.17
2018-11-03T02:53:27.018Z,16.13
2018-11-03T02:54:36.855Z,16.14
2018-11-03T02:55:45.876Z,16.1
2018-11-03T02:56:55.796Z,16.17
2018-11-03T02:58:05.656Z,16.14
2018-11-03T02:59:15.797Z,16.11
2018-11-03T03:00:26.226Z,16.13
2018-11-03T03:01:37.169Z,16.16
2018-11-03T03:02:47.257Z,16.18
2018-11-03T03:34:26.306Z,14.2
2018-11-03T03:35:36.149Z,14.16
2018-11-03T03:36:45.692Z,14.16
2018-11-03T03:37:55.562Z,14.06
2018-11-03T03:39:05.134Z,14.12
2018-11-03T03:40:15.333Z,14.24
2018-11-03T03:41:25.236Z,14.3
2018-11-03T03:42:34.796Z,14.36
2018-11-03T03:43:45.288Z,14.41
2018-11-03T03:44:57.022Z,14.51
2018-11-03T03:46:06.745Z,14.59
2018-11-03T03:47:16.887Z,14.63
2018-11-03T03:48:26.732Z,14.75
2018-11-03T03:49:36.855Z,14.87
2018-11-03T03:50:46.714Z,14.93
2018-11-03T03:51:56.542Z,15.02
2018-11-03T03:53:06.655Z,15.18
2018-11-03T03:54:16.758Z,15.22
2018-11-03T03:55:26.602Z,15.34
2018-11-03T03:56:36.697Z,15.4
2018-11-03T03:57:46.828Z,15.44
2018-11-03T03:58:56.136Z,15.55
2018-11-03T04:00:06.282Z,15.55
2018-11-03T04:01:16.161Z,15.56
2018-11-03T04:02:26.327Z,15.7
2018-11-03T04:03:36.474Z,15.73
2018-11-03T04:04:46.312Z,15.77
2018-11-03T04:05:56.431Z,15.86
2018-11-03T04:07:06.638Z,15.81
2018-11-03T04:08:16.894Z,15.93
2018-11-03T04:09:26.803Z,15.93
2018-11-03T04:10:36.639Z,15.84
2018-11-03T04:11:46.226Z,15.89
2018-11-03T04:12:56.073Z,15.93
2018-11-03T04:14:05.896Z,16.04
2018-11-03T04:15:15.792Z,15.99
2018-11-03T04:16:25.976Z,15.96
2018-11-03T04:17:36.084Z,16.04
2018-11-03T04:18:45.919Z,16.07
2018-11-03T04:19:55.736Z,16
2018-11-03T04:21:05.677Z,16.06
2018-11-03T04:22:15.775Z,15.95
2018-11-03T04:23:25.874Z,15.96
2018-11-03T04:24:35.701Z,15.98
2018-11-03T04:25:45.792Z,16
2018-11-03T04:26:55.349Z,15.98
2018-11-03T04:28:05.180Z,16.08
2018-11-03T04:29:15.280Z,16.08
2018-11-03T04:30:25.163Z,16.07
2018-11-03T04:31:34.731Z,16
2018-11-03T04:32:44.864Z,15.96
2018-11-03T04:33:55.175Z,15.92
2018-11-03T04:35:05.323Z,15.96
2018-11-03T04:36:15.669Z,15.98
2018-11-03T04:37:25.804Z,15.96
2018-11-03T04:38:36.005Z,16
2018-11-03T04:39:46.113Z,15.96
2018-11-03T04:40:56.252Z,15.95
2018-11-03T04:42:06.363Z,15.95
2018-11-03T04:43:16.474Z,16.04
2018-11-03T04:44:26.294Z,16.08
2018-11-03T04:45:36.749Z,16.07
2018-11-03T04:46:46.969Z,16.06
2018-11-03T04:47:57.115Z,16.02
2018-11-03T04:49:08.529Z,15.93
2018-11-03T04:50:18.674Z,15.96
2018-11-03T04:51:28.787Z,15.99
2018-11-03T04:52:38.682Z,15.99
2018-11-03T04:53:48.516Z,15.88
2018-11-03T04:54:58.147Z,15.89
2018-11-03T04:56:08.537Z,15.93
2018-11-03T04:57:19.183Z,15.91
2018-11-03T04:58:28.751Z,15.84
2018-11-03T04:59:38.863Z,15.98
2018-11-03T05:00:48.667Z,15.99
2018-11-03T05:01:58.231Z,16
2018-11-03T05:03:08.325Z,15.98
2018-11-03T05:04:18.521Z,15.93
2018-11-03T05:05:28.604Z,16.06
2018-11-03T05:06:38.482Z,15.91
2018-11-03T05:07:48.615Z,15.96
2018-11-03T05:08:58.166Z,15.96
2018-11-03T05:10:10.828Z,16
2018-11-03T05:11:20.814Z,16
2018-11-03T05:12:30.392Z,16.04
2018-11-03T05:13:40.423Z,15.96
2018-11-03T05:14:50.097Z,15.98
2018-11-03T05:15:59.906Z,15.96
2018-11-03T05:17:09.484Z,15.98
2018-11-03T05:18:19.047Z,15.98
2018-11-03T05:19:29.708Z,15.95
2018-11-03T05:20:39.457Z,15.99
2018-11-03T05:21:49.350Z,15.98
2018-11-03T05:22:59.212Z,15.95
2018-11-03T05:24:09.046Z,15.86
2018-11-03T05:25:19.176Z,15.89
2018-11-03T05:26:29.037Z,15.89
2018-11-03T05:27:38.897Z,15.95
2018-11-03T05:28:48.723Z,15.96
2018-11-03T05:29:58.847Z,15.99
2018-11-03T05:31:09.222Z,16
2018-11-03T05:32:19.398Z,15.98
2018-11-03T05:33:29.230Z,15.96
2018-11-03T05:34:39.377Z,15.96
2018-11-03T05:35:49.457Z,15.98
2018-11-03T05:36:59.285Z,15.99
2018-11-03T05:38:09.126Z,15.95
2018-11-03T05:39:18.953Z,15.84
2018-11-03T05:40:28.778Z,15.92
2018-11-03T05:41:38.902Z,15.93
2018-11-03T05:42:48.192Z,15.81
2018-11-03T05:43:58.204Z,15.88
2018-11-03T05:45:08.055Z,15.83
2018-11-03T05:46:18.040Z,15.81
2018-11-03T05:47:27.915Z,15.84
2018-11-03T05:48:37.756Z,15.83
2018-11-03T05:49:47.866Z,15.84
2018-11-03T05:50:57.430Z,15.84
2018-11-03T05:52:07.288Z,15.78
2018-11-03T05:53:17.439Z,15.84
2018-11-03T05:54:27.299Z,15.8
2018-11-03T05:55:36.862Z,15.74
2018-11-03T05:56:46.178Z,15.75
2018-11-03T05:57:56.021Z,15.71
2018-11-03T05:59:06.774Z,15.68
2018-11-03T06:00:16.958Z,15.65
2018-11-03T06:01:27.105Z,15.63
2018-11-03T06:02:36.999Z,15.59
2018-11-03T06:03:46.556Z,15.55
2018-11-03T06:04:57.106Z,15.62
2018-11-03T06:06:07.132Z,15.41
2018-11-03T06:07:17.344Z,15.41
2018-11-03T06:08:26.927Z,15.47
2018-11-03T06:09:36.760Z,15.47
2018-11-03T06:10:46.883Z,15.49
2018-11-03T06:11:56.457Z,15.51
2018-11-03T06:13:06.348Z,15.43
2018-11-03T06:14:16.433Z,15.43
2018-11-03T06:15:26.518Z,15.58
2018-11-03T06:16:36.142Z,15.6
2018-11-03T06:17:45.973Z,15.56
2018-11-03T06:18:55.521Z,15.55
2018-11-03T06:20:06.719Z,15.53
2018-11-03T06:21:16.822Z,15.53
2018-11-03T06:22:26.752Z,15.47
2018-11-03T06:23:37.072Z,15.55
2018-11-03T06:24:47.180Z,15.52
2018-11-03T06:25:57.021Z,15.59
2018-11-03T06:27:07.377Z,15.52
2018-11-03T06:28:18.556Z,15.43
2018-11-03T06:29:28.891Z,15.52
2018-11-03T06:30:38.997Z,15.44
2018-11-03T06:31:49.139Z,15.59
2018-11-03T06:32:59.317Z,15.55
2018-11-03T06:34:08.873Z,15.58
2018-11-03T06:35:19.193Z,15.58
2018-11-03T06:36:29.767Z,15.65
2018-11-03T06:37:39.608Z,15.63
2018-11-03T06:38:49.952Z,15.62
2018-11-03T06:39:59.638Z,15.71
2018-11-03T06:41:09.491Z,15.75
2018-11-03T06:42:19.312Z,15.7
2018-11-03T06:43:29.151Z,15.65
2018-11-03T06:44:38.964Z,15.67
2018-11-03T06:45:49.113Z,15.74
2018-11-03T06:46:58.940Z,15.78
2018-11-03T06:48:08.826Z,15.74
2018-11-03T06:49:19.234Z,15.73
2018-11-03T06:50:30.112Z,15.75
2018-11-03T06:51:40.664Z,15.74
2018-11-03T06:52:50.475Z,15.73
2018-11-03T06:54:00.626Z,15.75
2018-11-03T06:55:10.186Z,15.86
2018-11-03T06:56:20.021Z,15.71
2018-11-03T06:57:30.127Z,15.83
2018-11-03T06:58:40.021Z,15.83
2018-11-03T06:59:49.865Z,15.86
2018-11-03T07:00:59.449Z,15.95
2018-11-03T07:02:09.257Z,15.96
2018-11-03T07:03:19.094Z,15.88
2018-11-03T07:04:28.912Z,15.84
2018-11-03T07:05:38.765Z,15.8
2018-11-03T07:06:48.612Z,15.78
2018-11-03T07:07:58.721Z,15.77
2018-11-03T07:09:08.570Z,15.81
2018-11-03T07:10:18.722Z,15.78
2018-11-03T07:11:28.894Z,15.74
2018-11-03T07:12:40.886Z,15.77
2018-11-03T07:13:51.910Z,15.88
2018-11-03T07:15:03.379Z,15.8
2018-11-03T07:16:13.501Z,15.83
2018-11-03T07:17:23.370Z,15.74
2018-11-03T07:18:34.106Z,15.81
2018-11-03T07:19:44.286Z,15.86
2018-11-03T07:20:54.146Z,15.84
2018-11-03T07:22:04.292Z,15.88
2018-11-03T07:23:13.908Z,15.86
2018-11-03T07:24:23.230Z,15.88
2018-11-03T07:25:33.061Z,15.96
2018-11-03T07:26:42.935Z,16
2018-11-03T07:27:52.802Z,16.1
2018-11-03T07:29:03.089Z,16.11
2018-11-03T07:30:12.920Z,16.18
2018-11-03T07:31:22.481Z,16.29
2018-11-03T07:32:32.353Z,16.27
2018-11-03T07:33:42.205Z,16.27
2018-11-03T07:34:51.801Z,16.29
2018-11-03T07:36:01.980Z,16.26
2018-11-03T07:37:12.453Z,16.25
2018-11-03T07:38:23.407Z,16.3
2018-11-03T07:39:34.094Z,16.36
2018-11-03T07:40:44.364Z,16.3
2018-11-03T07:41:54.282Z,16.3
2018-11-03T07:43:04.103Z,16.32
2018-11-03T07:44:14.223Z,16.22
2018-11-03T07:45:24.384Z,16.29
2018-11-03T07:46:34.508Z,16.25
2018-11-03T07:47:44.634Z,16.36
2018-11-03T07:48:54.787Z,16.37
2018-11-03T07:50:05.485Z,16.42
2018-11-03T07:51:15.566Z,16.34
2018-11-03T07:52:25.648Z,16.49
2018-11-03T07:53:35.855Z,16.33
2018-11-03T07:54:46.111Z,16.48
2018-11-03T07:55:56.462Z,16.42
2018-11-03T07:57:06.597Z,16.52
2018-11-03T07:58:16.716Z,16.58
2018-11-03T07:59:26.593Z,16.62
2018-11-03T08:00:36.966Z,16.69
2018-11-03T08:01:47.549Z,16.72
2018-11-03T08:02:58.306Z,16.87
2018-11-03T08:04:09.526Z,16.94
2018-11-03T08:05:19.646Z,17.09
2018-11-03T08:06:29.752Z,17.24
2018-11-03T08:07:39.863Z,17.21
2018-11-03T08:08:49.860Z,17.36
2018-11-03T08:09:59.852Z,17.28
2018-11-03T08:11:09.970Z,17.36
2018-11-03T08:12:19.574Z,17.32
2018-11-03T08:13:29.448Z,17.43
2018-11-03T08:14:39.324Z,17.43
2018-11-03T08:15:49.353Z,17.47
2018-11-03T08:17:00.129Z,17.58
2018-11-03T08:18:10.295Z,17.49
2018-11-03T08:19:20.139Z,17.52
2018-11-03T08:20:29.969Z,17.58
2018-11-03T08:21:39.813Z,17.47
2018-11-03T08:22:49.662Z,17.47
2018-11-03T08:24:00.738Z,17.39
2018-11-03T08:25:10.861Z,17.42
2018-11-03T08:26:21.064Z,17.47
2018-11-03T08:27:31.183Z,17.49
2018-11-03T08:28:41.310Z,17.5
2018-11-03T08:29:51.423Z,17.52
2018-11-03T08:31:01.026Z,17.47
2018-11-03T08:32:10.869Z,17.58
2018-11-03T08:33:20.703Z,17.66
2018-11-03T08:34:30.794Z,17.74
2018-11-03T08:35:40.610Z,17.69
2018-11-03T08:36:50.454Z,17.74
2018-11-03T08:38:00.019Z,17.79
2018-11-03T08:39:10.227Z,17.84
2018-11-03T08:40:20.331Z,17.99
2018-11-03T08:41:30.455Z,18.11
2018-11-03T08:42:40.062Z,18.19
2018-11-03T08:43:50.195Z,18.23
2018-11-03T08:45:01.161Z,18.16
2018-11-03T08:46:11.398Z,18.24
2018-11-03T08:47:22.592Z,18.36
2018-11-03T08:48:33.123Z,18.38
2018-11-03T08:49:43.478Z,18.49
2018-11-03T08:50:53.043Z,18.53
2018-11-03T08:52:03.789Z,18.53
2018-11-03T08:53:13.901Z,18.63
2018-11-03T08:54:24.050Z,18.68
2018-11-03T08:55:33.905Z,18.69
2018-11-03T08:56:44.031Z,18.78
2018-11-03T08:57:54.111Z,18.82
2018-11-03T08:59:04.245Z,18.79
2018-11-03T09:00:14.828Z,18.79
2018-11-03T09:01:25.201Z,18.87
2018-11-03T09:02:35.036Z,18.89
2018-11-03T09:03:44.882Z,18.91
2018-11-03T09:04:55.045Z,18.89
2018-11-03T09:06:05.223Z,18.94
2018-11-03T09:07:16.098Z,18.94
2018-11-03T09:08:26.866Z,19.07
2018-11-03T09:09:37.064Z,19.05
2018-11-03T09:10:46.973Z,19.13
2018-11-03T09:11:56.554Z,19.1
2018-11-03T09:13:08.046Z,19.12
2018-11-03T09:14:17.945Z,19.12
2018-11-03T09:15:27.910Z,19.2
2018-11-03T09:16:37.796Z,19.25
2018-11-03T09:17:47.983Z,19.31
2018-11-03T09:18:57.825Z,19.32
2018-11-03T09:20:07.695Z,19.4
2018-11-03T09:21:17.790Z,19.42
2018-11-03T09:22:27.784Z,19.45
2018-11-03T09:23:37.872Z,19.47
2018-11-03T09:24:47.448Z,19.56
2018-11-03T09:25:57.740Z,19.6
2018-11-03T09:27:07.847Z,19.55
2018-11-03T09:28:17.823Z,19.63
2018-11-03T09:29:28.823Z,19.56
2018-11-03T09:30:39.216Z,19.65
2018-11-03T09:31:49.645Z,19.64
2018-11-03T09:32:59.659Z,19.61
2018-11-03T09:34:09.526Z,19.7
2018-11-03T09:35:19.124Z,19.72
2018-11-03T09:36:29.232Z,19.7
2018-11-03T09:37:38.793Z,19.63
2018-11-03T09:38:49.491Z,19.67
2018-11-03T09:39:59.388Z,19.63
2018-11-03T09:41:09.307Z,19.53
2018-11-03T09:42:18.881Z,19.46
2018-11-03T09:43:29.328Z,19.55
2018-11-03T09:44:39.767Z,19.56
2018-11-03T09:45:49.677Z,19.78
2018-11-03T09:46:59.501Z,19.83
2018-11-03T09:48:10.858Z,19.97
2018-11-03T09:49:20.718Z,20
2018-11-03T09:50:32.023Z,20.19
2018-11-03T09:51:42.457Z,20.25
2018-11-03T09:52:52.392Z,20.26
2018-11-03T09:54:02.536Z,20.19
2018-11-03T09:55:12.444Z,20.23
2018-11-03T09:56:22.792Z,20.26
2018-11-03T09:57:33.180Z,20.29
2018-11-03T09:58:43.358Z,20.23
2018-11-03T09:59:53.456Z,20.22
2018-11-03T10:01:03.318Z,20.26
2018-11-03T10:02:13.147Z,20.23
2018-11-03T10:03:22.989Z,20.18
2018-11-03T10:04:32.865Z,20.18
2018-11-03T10:05:42.761Z,20.19
2018-11-03T10:06:52.902Z,20.25
2018-11-03T10:08:02.229Z,20.27
2018-11-03T10:09:11.631Z,20.27
2018-11-03T10:10:21.890Z,20.34
2018-11-03T10:11:31.715Z,20.22
2018-11-03T10:12:42.343Z,20.26
2018-11-03T10:13:52.804Z,20.18
2018-11-03T10:15:02.836Z,20.11
2018-11-03T10:16:13.185Z,20.11
2018-11-03T10:17:23.284Z,20
2018-11-03T10:18:33.159Z,20.1
2018-11-03T10:19:43.048Z,20.07
2018-11-03T10:20:53.176Z,20.02
2018-11-03T10:22:03.414Z,20
2018-11-03T10:23:13.186Z,19.92
2018-11-03T10:24:23.290Z,20.02
2018-11-03T10:25:32.847Z,20.04
2018-11-03T10:26:43.019Z,20
2018-11-03T10:27:52.958Z,20.1
2018-11-03T10:29:03.741Z,19.98
2018-11-03T10:30:13.625Z,19.98
2018-11-03T10:31:23.752Z,19.85
2018-11-03T10:32:33.325Z,19.78
2018-11-03T10:33:43.831Z,19.68
2018-11-03T10:34:54.295Z,19.63
2018-11-03T10:36:05.225Z,19.57
2018-11-03T10:37:15.586Z,19.68
2018-11-03T10:38:25.414Z,19.6
2018-11-03T10:39:35.591Z,19.67
2018-11-03T10:40:45.704Z,19.64
2018-11-03T10:41:55.845Z,19.61
2018-11-03T10:43:06.322Z,19.52
2018-11-03T10:44:15.879Z,19.5
2018-11-03T10:45:25.765Z,19.5
2018-11-03T10:46:35.807Z,19.46
2018-11-03T10:47:45.684Z,19.35
2018-11-03T10:48:55.828Z,19.23
2018-11-03T10:50:06.625Z,19.24
2018-11-03T10:51:16.806Z,19.28
2018-11-03T10:52:26.966Z,19.09
2018-11-03T10:53:37.042Z,19
2018-11-03T10:54:47.596Z,18.86
2018-11-03T10:55:57.738Z,18.89
2018-11-03T10:57:08.824Z,18.86
2018-11-03T10:58:18.858Z,18.81
2018-11-03T10:59:29.050Z,18.74
2018-11-03T11:00:39.225Z,18.78
2018-11-03T11:01:48.852Z,18.84
2018-11-03T11:02:58.401Z,18.96
2018-11-03T11:04:08.331Z,19.1
2018-11-03T11:05:18.244Z,19.13
2018-11-03T11:06:28.098Z,19.17
2018-11-03T11:07:37.995Z,19.09
2018-11-03T11:08:48.096Z,19.1
2018-11-03T11:09:58.002Z,18.94
2018-11-03T11:11:11.251Z,18.97
2018-11-03T11:12:21.377Z,18.99
2018-11-03T11:13:31.300Z,18.97
2018-11-03T11:14:41.495Z,19.02
2018-11-03T11:15:51.052Z,19.07
2018-11-03T11:17:02.303Z,19.09
2018-11-03T11:18:13.192Z,19.1
2018-11-03T11:19:23.230Z,19.25
2018-11-03T11:20:34.094Z,19.25
2018-11-03T11:21:44.210Z,19.23
2018-11-03T11:22:53.836Z,19.09
2018-11-03T11:24:03.835Z,18.97
2018-11-03T11:25:14.564Z,18.93
2018-11-03T11:26:24.120Z,18.68
2018-11-03T11:27:33.988Z,18.63
2018-11-03T11:28:43.842Z,18.51
2018-11-03T11:29:53.155Z,18.63
2018-11-03T11:31:04.383Z,18.76
2018-11-03T11:32:14.055Z,18.87
2018-11-03T11:33:23.100Z,18.89
2018-11-03T11:34:32.985Z,18.96
2018-11-03T11:35:42.846Z,18.93
2018-11-03T11:36:52.960Z,18.84
2018-11-03T11:38:03.071Z,18.89
2018-11-03T11:39:13.543Z,18.9
2018-11-03T11:40:24.784Z,18.91
2018-11-03T11:41:34.647Z,18.86
2018-11-03T11:42:44.502Z,18.93
2018-11-03T11:43:53.841Z,18.89
2018-11-03T11:45:04.632Z,18.94
2018-11-03T11:46:14.729Z,19.07
2018-11-03T11:47:24.303Z,19.2
2018-11-03T11:48:34.162Z,19.28
2018-11-03T11:49:44.393Z,19.45
2018-11-03T11:50:54.530Z,19.5
2018-11-03T11:52:04.741Z,19.63
2018-11-03T11:53:14.594Z,19.68
2018-11-03T11:54:24.161Z,19.72
2018-11-03T11:55:34.283Z,19.72
2018-11-03T11:56:44.118Z,19.83
2018-11-03T11:57:54.268Z,19.85
2018-11-03T11:59:04.418Z,19.75
2018-11-03T12:00:14.276Z,19.75
2018-11-03T12:01:23.876Z,19.71
2018-11-03T12:02:34.418Z,19.67
2018-11-03T12:03:44.464Z,19.52
2018-11-03T12:04:55.357Z,19.56
2018-11-03T12:06:05.957Z,19.5
2018-11-03T12:07:15.508Z,19.57
2018-11-03T12:08:25.403Z,19.56
2018-11-03T12:09:34.711Z,19.67
2018-11-03T12:10:44.280Z,19.64
2018-11-03T12:11:54.169Z,19.67
2018-11-03T12:13:04.047Z,19.65
2018-11-03T12:14:13.912Z,19.68
2018-11-03T12:15:23.535Z,19.64
2018-11-03T12:16:33.682Z,19.64
2018-11-03T12:17:43.833Z,19.68
2018-11-03T12:18:53.667Z,19.56
2018-11-03T12:20:03.773Z,19.6
2018-11-03T12:21:13.641Z,19.68
2018-11-03T12:22:23.554Z,19.67
2018-11-03T12:23:33.405Z,19.75
2018-11-03T12:24:43.547Z,19.61
2018-11-03T12:25:53.305Z,19.64
2018-11-03T12:27:04.858Z,19.63
2018-11-03T12:28:16.078Z,19.7
2018-11-03T12:29:26.477Z,19.61
2018-11-03T12:30:36.592Z,19.6
2018-11-03T12:31:46.820Z,19.68
2018-11-03T12:32:56.139Z,19.52
2018-11-03T12:34:06.295Z,19.63
2018-11-03T12:35:15.911Z,19.68
2018-11-03T12:36:25.903Z,19.55
2018-11-03T12:37:36.033Z,19.53
2018-11-03T12:38:46.179Z,19.5
2018-11-03T12:39:55.763Z,19.63
2018-11-03T12:41:06.212Z,19.67
2018-11-03T12:42:16.559Z,19.68
2018-11-03T12:43:26.676Z,19.5
2018-11-03T12:44:36.831Z,19.63
2018-11-03T12:45:46.783Z,19.56
2018-11-03T12:46:57.011Z,19.53
2018-11-03T12:48:07.077Z,19.5
2018-11-03T12:49:17.123Z,19.5
2018-11-03T12:50:27.258Z,19.43
2018-11-03T12:51:38.155Z,19.45
2018-11-03T12:52:47.976Z,19.49
2018-11-03T12:53:57.912Z,19.45
2018-11-03T12:55:07.486Z,19.43
2018-11-03T12:56:17.331Z,19.37
2018-11-03T12:57:27.489Z,19.23
2018-11-03T12:58:36.851Z,18.91
2018-11-03T12:59:46.507Z,18.79
2018-11-03T13:00:56.093Z,18.78
2018-11-03T13:02:06.372Z,18.65
2018-11-03T13:03:16.425Z,18.54
2018-11-03T13:04:26.592Z,18.53
2018-11-03T13:05:36.475Z,18.51
2018-11-03T13:06:46.716Z,18.44
2018-11-03T13:07:56.917Z,18.53
2018-11-03T13:09:07.042Z,18.57
2018-11-03T13:10:17.028Z,18.63
2018-11-03T13:11:27.162Z,18.72
2018-11-03T13:12:36.975Z,18.71
2018-11-03T13:13:47.084Z,18.75
2018-11-03T13:14:57.181Z,18.78
2018-11-03T13:16:06.854Z,18.76
2018-11-03T13:17:16.677Z,18.82
2018-11-03T13:18:26.775Z,18.86
2018-11-03T13:19:36.891Z,18.79
2018-11-03T13:20:47.001Z,18.78
2018-11-03T13:21:56.794Z,18.68
2018-11-03T13:23:06.661Z,18.65
2018-11-03T13:24:16.473Z,18.56
2018-11-03T13:25:26.306Z,18.47
2018-11-03T13:26:36.379Z,18.41
2018-11-03T13:27:46.481Z,18.45
2018-11-03T13:28:56.580Z,18.38
2018-11-03T13:30:06.439Z,18.44
2018-11-03T13:31:16.253Z,18.27
2018-11-03T13:32:26.097Z,18.31
2018-11-03T13:33:35.917Z,18.31
2018-11-03T13:34:46.268Z,18.29
2018-11-03T13:35:56.233Z,18.16
2018-11-03T13:37:06.061Z,18.17
2018-11-03T13:38:16.148Z,18.23
2018-11-03T13:39:26.271Z,18.16
2018-11-03T13:40:36.427Z,18.32
2018-11-03T13:41:46.639Z,18.17
2018-11-03T13:42:56.440Z,18.2
2018-11-03T13:44:06.603Z,18.31
2018-11-03T13:45:15.887Z,18.26
2018-11-03T13:46:25.746Z,18.14
2018-11-03T13:47:35.927Z,18.2
2018-11-03T13:48:45.501Z,18.19
2018-11-03T13:49:55.608Z,18.17
2018-11-03T13:51:05.443Z,18.2
2018-11-03T13:52:15.545Z,18.14
2018-11-03T13:53:25.620Z,18.21
2018-11-03T13:54:35.439Z,18.2
2018-11-03T13:55:45.291Z,18.14
2018-11-03T13:56:55.346Z,18.17
2018-11-03T13:58:05.733Z,18.24
2018-11-03T13:59:15.570Z,18.16
2018-11-03T14:00:25.393Z,18.24
2018-11-03T14:01:35.472Z,18.31
2018-11-03T14:02:45.575Z,18.31
2018-11-03T14:03:55.712Z,18.29
2018-11-03T14:05:06.679Z,18.26
2018-11-03T14:06:16.755Z,18.29
2018-11-03T14:07:26.841Z,18.31
2018-11-03T14:08:36.929Z,18.27
2018-11-03T14:09:46.730Z,18.29
2018-11-03T14:10:56.658Z,18.34
2018-11-03T14:12:07.941Z,18.39
2018-11-03T14:13:18.032Z,18.31
2018-11-03T14:14:28.128Z,18.44
2018-11-03T14:15:38.129Z,18.31
2018-11-03T14:16:48.307Z,18.42
2018-11-03T14:17:58.183Z,18.26
2018-11-03T14:19:07.785Z,18.34
2018-11-03T14:20:17.903Z,18.24
2018-11-03T14:21:28.009Z,18.26
2018-11-03T14:22:37.593Z,18.19
2018-11-03T14:23:47.731Z,18.24
2018-11-03T14:24:57.570Z,18.14
2018-11-03T14:26:07.406Z,18.1
2018-11-03T14:27:17.236Z,18.19
2018-11-03T14:28:27.081Z,18.1
2018-11-03T14:29:36.962Z,18.06
2018-11-03T14:30:46.857Z,18.01
2018-11-03T14:31:56.463Z,17.94
2018-11-03T14:33:06.490Z,17.94
2018-11-03T14:34:16.155Z,17.84
2018-11-03T14:35:26.259Z,17.76
2018-11-03T14:36:36.077Z,17.83
2018-11-03T14:37:46.140Z,17.71
2018-11-03T14:38:56.235Z,17.62
2018-11-03T14:40:06.072Z,17.69
2018-11-03T14:41:15.902Z,17.62
2018-11-03T14:42:25.239Z,17.69
2018-11-03T14:43:34.553Z,17.52
2018-11-03T14:44:44.455Z,17.55
2018-11-03T14:45:54.389Z,17.58
2018-11-03T14:47:04.604Z,17.5
2018-11-03T14:48:14.470Z,17.54
2018-11-03T14:49:24.349Z,17.49
2018-11-03T14:50:34.176Z,17.5
2018-11-03T14:51:43.736Z,17.49
2018-11-03T14:52:53.291Z,17.54
2018-11-03T14:54:03.382Z,17.45
2018-11-03T14:55:13.215Z,17.49
2018-11-03T14:56:23.280Z,17.47
2018-11-03T14:57:32.825Z,17.45
2018-11-03T14:58:42.669Z,17.43
2018-11-03T14:59:52.769Z,17.45
2018-11-03T15:01:02.700Z,17.43
2018-11-03T15:02:12.863Z,17.4
2018-11-03T15:03:22.973Z,17.31
2018-11-03T15:04:32.529Z,17.32
2018-11-03T15:05:42.638Z,17.35
2018-11-03T15:06:52.459Z,17.24
2018-11-03T15:08:04.661Z,17.32
2018-11-03T15:09:14.738Z,17.36
2018-11-03T15:10:24.812Z,17.21
2018-11-03T15:11:34.634Z,17.21
2018-11-03T15:12:44.465Z,17.21
2018-11-03T15:13:54.938Z,17.3
2018-11-03T15:15:05.159Z,17.21
2018-11-03T15:16:15.388Z,17.22
2018-11-03T15:17:25.221Z,17.17
2018-11-03T15:18:35.049Z,17.25
2018-11-03T15:19:44.992Z,17.15
2018-11-03T15:20:55.118Z,17.1
2018-11-03T15:22:04.944Z,17.12
2018-11-03T15:23:15.047Z,17.12
2018-11-03T15:24:25.156Z,17.07
2018-11-03T15:25:36.349Z,17.06
2018-11-03T15:26:46.179Z,17.06
2018-11-03T15:27:55.730Z,17.06
2018-11-03T15:29:07.514Z,16.9
2018-11-03T15:30:17.370Z,16.91
2018-11-03T15:31:27.197Z,17
2018-11-03T15:32:37.330Z,17
2018-11-03T15:33:47.415Z,16.94
2018-11-03T15:34:57.790Z,16.92
2018-11-03T15:36:09.312Z,16.91
2018-11-03T15:37:19.140Z,16.97